sensor_id;sensor_type;location;lat;lon;timestamp;pressure;altitude;pressure_sealevel;temperature;humidity
12913;BME280;6524;51.368;11.984;2022-09-03T04:03:55;100376.78;;;16.57;64.02
12913;BME280;6524;51.368;11.984;2022-09-03T04:08:55;100377.31;;;16.64;64.23
12913;BME280;6524;51.368;11.984;2022-09-03T04:13:56;100380.31;;;16.72;64.02
12913;BME280;6524;51.368;11.984;2022-09-03T04:18:56;100376.53;;;16.62;64.29
12913;BME280;6524;51.368;11.984;2022-09-03T04:23:57;100367.69;;;16.63;64.77
12913;BME280;6524;51.368;11.984;2022-09-03T04:29:08;100377.06;;;16.53;65.20
12913;BME280;6524;51.368;11.984;2022-09-03T04:34:09;100382.16;;;16.56;65.74
12913;BME280;6524;51.368;11.984;2022-09-03T04:39:09;100384.06;;;16.68;64.45
12913;BME280;6524;51.368;11.984;2022-09-03T04:44:09;100381.19;;;16.57;64.62
12913;BME280;6524;51.368;11.984;2022-09-03T04:49:10;100379.16;;;16.62;64.58
12913;BME280;6524;51.368;11.984;2022-09-03T04:54:10;100384.06;;;16.68;64.52
12913;BME280;6524;51.368;11.984;2022-09-03T04:59:10;100383.91;;;16.71;64.74
12913;BME280;6524;51.368;11.984;2022-09-03T05:04:11;100380.31;;;16.72;64.42
12913;BME280;6524;51.368;11.984;2022-09-03T05:09:11;100392.53;;;16.73;63.99
12913;BME280;6524;51.368;11.984;2022-09-03T05:14:11;100404.09;;;16.86;64.27
12913;BME280;6524;51.368;11.984;2022-09-03T05:19:12;100394.97;;;16.92;64.06
12913;BME280;6524;51.368;11.984;2022-09-03T05:24:12;100389.09;;;17.03;63.39
12913;BME280;6524;51.368;11.984;2022-09-03T05:29:14;100396.03;;;17.04;63.57
12913;BME280;6524;51.368;11.984;2022-09-03T05:34:15;100394.34;;;17.03;63.58
12913;BME280;6524;51.368;11.984;2022-09-03T05:39:15;100393.53;;;17.02;63.65
12913;BME280;6524;51.368;11.984;2022-09-03T05:44:15;100394.00;;;17.09;63.64
12913;BME280;6524;51.368;11.984;2022-09-03T05:49:16;100390.22;;;17.13;63.27
12913;BME280;6524;51.368;11.984;2022-09-03T05:54:16;100392.13;;;17.11;63.24
12913;BME280;6524;51.368;11.984;2022-09-03T05:59:17;100397.00;;;17.17;63.52
12913;BME280;6524;51.368;11.984;2022-09-03T06:04:18;100389.50;;;17.25;63.30
12913;BME280;6524;51.368;11.984;2022-09-03T06:09:20;100390.91;;;17.45;62.62
12913;BME280;6524;51.368;11.984;2022-09-03T06:14:21;100389.97;;;17.61;62.09
12913;BME280;6524;51.368;11.984;2022-09-03T06:19:22;100398.97;;;17.87;61.79
12913;BME280;6524;51.368;11.984;2022-09-03T06:24:23;100411.00;;;18.05;60.84
12913;BME280;6524;51.368;11.984;2022-09-03T06:29:26;100396.38;;;18.41;59.37
12913;BME280;6524;51.368;11.984;2022-09-03T06:34:26;100406.75;;;18.44;59.08
12913;BME280;6524;51.368;11.984;2022-09-03T06:39:27;100406.56;;;18.74;58.31
12913;BME280;6524;51.368;11.984;2022-09-03T06:44:27;100409.97;;;18.62;58.39
12913;BME280;6524;51.368;11.984;2022-09-03T06:49:28;100414.94;;;18.81;57.28
12913;BME280;6524;51.368;11.984;2022-09-03T06:54:29;100416.88;;;19.04;56.27
12913;BME280;6524;51.368;11.984;2022-09-03T06:59:30;100416.03;;;19.16;55.43
12913;BME280;6524;51.368;11.984;2022-09-03T07:04:31;100411.81;;;19.27;55.36
12913;BME280;6524;51.368;11.984;2022-09-03T07:09:33;100421.13;;;19.45;54.96
12913;BME280;6524;51.368;11.984;2022-09-03T07:14:37;100412.34;;;19.83;53.84
12913;BME280;6524;51.368;11.984;2022-09-03T07:19:37;100415.38;;;20.02;53.41
12913;BME280;6524;51.368;11.984;2022-09-03T07:24:37;100402.38;;;20.84;51.18
12913;BME280;6524;51.368;11.984;2022-09-03T07:29:38;100404.00;;;21.78;48.97
12913;BME280;6524;51.368;11.984;2022-09-03T07:34:38;100408.34;;;26.04;39.47
12913;BME280;6524;51.368;11.984;2022-09-03T07:39:39;100416.78;;;27.68;35.44
12913;BME280;6524;51.368;11.984;2022-09-03T07:44:40;100415.31;;;29.08;33.09
12913;BME280;6524;51.368;11.984;2022-09-03T07:49:40;100423.16;;;31.89;29.28
12913;BME280;6524;51.368;11.984;2022-09-03T07:54:41;100424.25;;;32.88;27.72
12913;BME280;6524;51.368;11.984;2022-09-03T07:59:42;100432.66;;;34.46;25.27
12913;BME280;6524;51.368;11.984;2022-09-03T08:04:42;100439.44;;;35.30;24.48
12913;BME280;6524;51.368;11.984;2022-09-03T08:09:43;100437.84;;;37.27;22.49
12913;BME280;6524;51.368;11.984;2022-09-03T08:14:43;100442.31;;;31.94;27.94
12913;BME280;6524;51.368;11.984;2022-09-03T08:19:43;100420.69;;;29.08;31.75
12913;BME280;6524;51.368;11.984;2022-09-03T08:24:45;100421.00;;;27.71;33.37
12913;BME280;6524;51.368;11.984;2022-09-03T08:29:45;100421.41;;;27.84;33.40
12913;BME280;6524;51.368;11.984;2022-09-03T08:34:47;100410.94;;;28.07;33.86
12913;BME280;6524;51.368;11.984;2022-09-03T08:39:48;100412.78;;;27.99;32.86
12913;BME280;6524;51.368;11.984;2022-09-03T08:44:59;100407.28;;;28.08;32.65
12913;BME280;6524;51.368;11.984;2022-09-03T08:50:24;100403.06;;;27.37;33.76
12913;BME280;6524;51.368;11.984;2022-09-03T08:55:30;100398.16;;;28.44;32.94
12913;BME280;6524;51.368;11.984;2022-09-03T09:05:46;100399.81;;;28.36;31.83
12913;BME280;6524;51.368;11.984;2022-09-03T09:11:04;100387.94;;;28.88;31.47
12913;BME280;6524;51.368;11.984;2022-09-03T09:21:41;100380.72;;;28.97;31.26
12913;BME280;6524;51.368;11.984;2022-09-03T09:26:45;100374.38;;;28.90;30.36
12913;BME280;6524;51.368;11.984;2022-09-03T09:31:46;100383.34;;;29.46;29.72
12913;BME280;6524;51.368;11.984;2022-09-03T09:36:51;100380.63;;;29.54;29.89
12913;BME280;6524;51.368;11.984;2022-09-03T09:42:00;100368.66;;;28.76;29.95
12913;BME280;6524;51.368;11.984;2022-09-03T09:47:37;100367.16;;;29.70;29.72
12913;BME280;6524;51.368;11.984;2022-09-03T09:52:38;100366.75;;;29.90;29.38
12913;BME280;6524;51.368;11.984;2022-09-03T09:57:39;100366.91;;;29.41;28.78
12913;BME280;6524;51.368;11.984;2022-09-03T10:02:46;100368.00;;;30.33;28.40
12913;BME280;6524;51.368;11.984;2022-09-03T10:07:58;100358.34;;;30.47;27.05
12913;BME280;6524;51.368;11.984;2022-09-03T10:13:05;100363.78;;;30.77;25.87
12913;BME280;6524;51.368;11.984;2022-09-03T10:23:18;100362.13;;;30.76;26.83
12913;BME280;6524;51.368;11.984;2022-09-03T10:28:24;100358.25;;;30.01;29.85
12913;BME280;6524;51.368;11.984;2022-09-03T10:33:35;100374.84;;;29.82;28.00
12913;BME280;6524;51.368;11.984;2022-09-03T10:38:39;100351.78;;;30.64;30.92
12913;BME280;6524;51.368;11.984;2022-09-03T10:44:08;100348.38;;;30.94;27.08
12913;BME280;6524;51.368;11.984;2022-09-03T10:54:39;100336.50;;;31.62;30.52
12913;BME280;6524;51.368;11.984;2022-09-03T11:00:14;100335.44;;;32.51;28.24
12913;BME280;6524;51.368;11.984;2022-09-03T11:10:28;100322.78;;;32.79;27.95
12913;BME280;6524;51.368;11.984;2022-09-03T11:15:41;100333.97;;;32.76;25.29
12913;BME280;6524;51.368;11.984;2022-09-03T11:20:46;100322.47;;;32.95;26.21
12913;BME280;6524;51.368;11.984;2022-09-03T11:25:52;100333.97;;;33.32;25.38
12913;BME280;6524;51.368;11.984;2022-09-03T11:31:17;100318.28;;;32.93;26.79
12913;BME280;6524;51.368;11.984;2022-09-03T11:36:31;100323.75;;;33.69;25.89
12913;BME280;6524;51.368;11.984;2022-09-03T11:41:36;100323.66;;;32.86;23.87
12913;BME280;6524;51.368;11.984;2022-09-03T11:46:39;100311.34;;;33.05;27.94
12913;BME280;6524;51.368;11.984;2022-09-03T11:51:39;100312.03;;;31.64;25.31
12913;BME280;6524;51.368;11.984;2022-09-03T11:56:41;100306.81;;;31.77;25.11
12913;BME280;6524;51.368;11.984;2022-09-03T12:01:46;100308.31;;;32.16;24.92
12913;BME280;6524;51.368;11.984;2022-09-03T12:07:12;100293.66;;;32.03;24.65
12913;BME280;6524;51.368;11.984;2022-09-03T12:23:13;100274.44;;;32.13;25.10
12913;BME280;6524;51.368;11.984;2022-09-03T12:28:25;100272.03;;;32.46;26.29
12913;BME280;6524;51.368;11.984;2022-09-03T12:33:27;100280.34;;;32.73;26.44
12913;BME280;6524;51.368;11.984;2022-09-03T12:38:28;100286.84;;;32.51;24.06
12913;BME280;6524;51.368;11.984;2022-09-03T12:43:29;100279.22;;;32.89;24.93
12913;BME280;6524;51.368;11.984;2022-09-03T12:48:30;100267.34;;;32.55;24.46
12913;BME280;6524;51.368;11.984;2022-09-03T12:53:31;100267.09;;;32.29;25.84
12913;BME280;6524;51.368;11.984;2022-09-03T12:58:52;100262.66;;;31.99;25.56
12913;BME280;6524;51.368;11.984;2022-09-03T13:04:05;100245.78;;;31.54;26.70
12913;BME280;6524;51.368;11.984;2022-09-03T13:09:08;100242.41;;;31.67;26.07
12913;BME280;6524;51.368;11.984;2022-09-03T13:14:13;100243.53;;;32.16;26.00
12913;BME280;6524;51.368;11.984;2022-09-03T13:19:38;100234.09;;;32.05;26.40
12913;BME280;6524;51.368;11.984;2022-09-03T13:30:15;100217.13;;;31.90;28.96
12913;BME280;6524;51.368;11.984;2022-09-03T13:35:37;100209.22;;;31.88;27.67
12913;BME280;6524;51.368;11.984;2022-09-03T13:45:57;100222.19;;;31.56;27.50
12913;BME280;6524;51.368;11.984;2022-09-03T13:56:22;100209.69;;;31.55;27.12
12913;BME280;6524;51.368;11.984;2022-09-03T14:01:41;100203.34;;;31.27;27.86
12913;BME280;6524;51.368;11.984;2022-09-03T14:07:01;100207.25;;;31.39;27.37
12913;BME280;6524;51.368;11.984;2022-09-03T14:12:28;100204.75;;;30.34;29.49
12913;BME280;6524;51.368;11.984;2022-09-03T14:17:39;100197.19;;;29.68;30.62
12913;BME280;6524;51.368;11.984;2022-09-03T14:23:16;100191.50;;;29.55;30.32
12913;BME280;6524;51.368;11.984;2022-09-03T14:28:36;100186.44;;;29.60;30.71
12913;BME280;6524;51.368;11.984;2022-09-03T14:33:56;100190.78;;;28.99;33.08
12913;BME280;6524;51.368;11.984;2022-09-03T14:49:44;100188.69;;;29.80;32.09
12913;BME280;6524;51.368;11.984;2022-09-03T14:55:19;100201.16;;;29.41;31.62
12913;BME280;6524;51.368;11.984;2022-09-03T15:00:25;100194.16;;;29.01;32.21
12913;BME280;6524;51.368;11.984;2022-09-03T15:05:53;100192.56;;;28.67;33.45
12913;BME280;6524;51.368;11.984;2022-09-03T15:11:16;100191.59;;;27.78;31.57
12913;BME280;6524;51.368;11.984;2022-09-03T15:26:55;100186.63;;;26.90;34.06
12913;BME280;6524;51.368;11.984;2022-09-03T15:32:04;100185.19;;;27.12;34.67
12913;BME280;6524;51.368;11.984;2022-09-03T15:37:33;100181.63;;;27.30;35.22
12913;BME280;6524;51.368;11.984;2022-09-03T15:42:35;100179.28;;;27.27;35.49
12913;BME280;6524;51.368;11.984;2022-09-03T15:53:14;100176.06;;;27.23;34.24
12913;BME280;6524;51.368;11.984;2022-09-03T15:58:23;100186.75;;;27.23;34.98
12913;BME280;6524;51.368;11.984;2022-09-03T16:03:37;100187.13;;;26.86;34.61
12913;BME280;6524;51.368;11.984;2022-09-03T16:08:49;100183.81;;;27.00;35.16
12913;BME280;6524;51.368;11.984;2022-09-03T16:14:11;100186.22;;;26.77;34.80
12913;BME280;6524;51.368;11.984;2022-09-03T16:19:18;100187.19;;;26.68;36.67
12913;BME280;6524;51.368;11.984;2022-09-03T16:24:32;100188.94;;;26.33;36.18
12913;BME280;6524;51.368;11.984;2022-09-03T16:29:36;100191.97;;;26.38;35.59
12913;BME280;6524;51.368;11.984;2022-09-03T16:40:21;100191.16;;;26.20;36.64
12913;BME280;6524;51.368;11.984;2022-09-03T16:45:37;100182.53;;;26.26;36.51
12913;BME280;6524;51.368;11.984;2022-09-03T17:12:42;100184.63;;;25.60;37.76
12913;BME280;6524;51.368;11.984;2022-09-03T17:23:25;100185.03;;;25.38;38.39
12913;BME280;6524;51.368;11.984;2022-09-03T17:39:48;100193.00;;;24.92;39.63
12913;BME280;6524;51.368;11.984;2022-09-03T17:45:15;100198.16;;;24.66;40.50
12913;BME280;6524;51.368;11.984;2022-09-03T17:50:23;100203.53;;;24.47;40.66
12913;BME280;6524;51.368;11.984;2022-09-03T17:55:35;100212.81;;;24.23;40.92
12913;BME280;6524;51.368;11.984;2022-09-03T18:06:25;100219.69;;;23.87;41.87
12913;BME280;6524;51.368;11.984;2022-09-03T18:11:38;100225.28;;;23.74;42.57
12913;BME280;6524;51.368;11.984;2022-09-03T18:17:07;100222.00;;;23.61;42.71
12913;BME280;6524;51.368;11.984;2022-09-03T18:22:08;100227.91;;;23.65;42.92
12913;BME280;6524;51.368;11.984;2022-09-03T18:27:34;100235.75;;;23.66;43.47
12913;BME280;6524;51.368;11.984;2022-09-03T18:32:55;100239.94;;;23.59;43.98
12913;BME280;6524;51.368;11.984;2022-09-03T18:38:26;100240.09;;;23.58;43.77
12913;BME280;6524;51.368;11.984;2022-09-03T18:43:48;100253.41;;;23.58;44.28
12913;BME280;6524;51.368;11.984;2022-09-03T18:49:29;100254.31;;;23.47;44.79
12913;BME280;6524;51.368;11.984;2022-09-03T18:55:00;100250.84;;;23.46;45.42
12913;BME280;6524;51.368;11.984;2022-09-03T19:00:26;100253.88;;;23.32;45.91
12913;BME280;6524;51.368;11.984;2022-09-03T19:06:17;100235.38;;;23.30;46.30
12913;BME280;6524;51.368;11.984;2022-09-03T19:12:02;100246.56;;;23.24;45.73
12913;BME280;6524;51.368;11.984;2022-09-03T19:17:53;100253.25;;;23.19;46.87
12913;BME280;6524;51.368;11.984;2022-09-03T19:23:16;100249.06;;;23.16;46.81
12913;BME280;6524;51.368;11.984;2022-09-03T19:28:40;100252.09;;;23.02;47.61
12913;BME280;6524;51.368;11.984;2022-09-03T19:34:16;100254.28;;;22.97;48.12
12913;BME280;6524;51.368;11.984;2022-09-03T19:40:01;100256.75;;;22.89;48.83
12913;BME280;6524;51.368;11.984;2022-09-03T19:51:17;100268.38;;;22.67;49.86
12913;BME280;6524;51.368;11.984;2022-09-03T19:56:35;100274.78;;;22.64;50.10
12913;BME280;6524;51.368;11.984;2022-09-03T20:01:56;100272.13;;;22.64;51.42
12913;BME280;6524;51.368;11.984;2022-09-03T20:07:17;100278.44;;;22.63;52.34
12913;BME280;6524;51.368;11.984;2022-09-03T20:12:40;100275.31;;;22.58;52.33
12913;BME280;6524;51.368;11.984;2022-09-03T20:18:09;100290.09;;;22.51;52.62
12913;BME280;6524;51.368;11.984;2022-09-03T20:23:47;100291.78;;;22.52;52.23
12913;BME280;6524;51.368;11.984;2022-09-03T20:39:49;100287.03;;;22.55;52.12
12913;BME280;6524;51.368;11.984;2022-09-03T20:50:45;100293.38;;;22.43;53.05
12913;BME280;6524;51.368;11.984;2022-09-03T20:55:54;100294.56;;;22.18;53.40
12913;BME280;6524;51.368;11.984;2022-09-03T21:01:04;100305.41;;;22.15;54.09
12913;BME280;6524;51.368;11.984;2022-09-03T21:06:18;100298.00;;;21.98;54.59
12913;BME280;6524;51.368;11.984;2022-09-03T21:22:08;100296.50;;;21.61;54.83
12913;BME280;6524;51.368;11.984;2022-09-03T21:27:15;100298.06;;;21.53;54.83
12913;BME280;6524;51.368;11.984;2022-09-03T21:32:30;100300.75;;;21.41;54.84
12913;BME280;6524;51.368;11.984;2022-09-03T21:37:35;100306.53;;;21.35;55.18
12913;BME280;6524;51.368;11.984;2022-09-03T21:42:47;100304.31;;;21.18;56.03
12913;BME280;6524;51.368;11.984;2022-09-03T21:48:05;100308.28;;;20.90;56.79
12913;BME280;6524;51.368;11.984;2022-09-03T21:53:17;100309.84;;;20.92;57.66
12913;BME280;6524;51.368;11.984;2022-09-03T21:58:30;100317.56;;;20.84;57.75
12913;BME280;6524;51.368;11.984;2022-09-03T22:03:39;100323.56;;;20.75;58.07
12913;BME280;6524;51.368;11.984;2022-09-03T22:08:46;100318.50;;;20.72;58.17
12913;BME280;6524;51.368;11.984;2022-09-03T22:14:09;100318.91;;;20.54;58.88
12913;BME280;6524;51.368;11.984;2022-09-03T22:19:11;100321.84;;;20.63;58.92
12913;BME280;6524;51.368;11.984;2022-09-03T22:40:22;100322.19;;;20.34;59.59
12913;BME280;6524;51.368;11.984;2022-09-03T22:50:50;100328.66;;;20.30;59.68
12913;BME280;6524;51.368;11.984;2022-09-03T22:56:06;100317.84;;;20.33;59.34
12913;BME280;6524;51.368;11.984;2022-09-03T23:01:21;100323.09;;;20.22;60.06
12913;BME280;6524;51.368;11.984;2022-09-03T23:06:31;100323.53;;;20.16;59.97
12913;BME280;6524;51.368;11.984;2022-09-03T23:11:42;100331.72;;;20.13;60.27
12913;BME280;6524;51.368;11.984;2022-09-03T23:16:54;100323.69;;;20.01;61.32
12913;BME280;6524;51.368;11.984;2022-09-03T23:21:58;100332.59;;;20.00;61.39
12913;BME280;6524;51.368;11.984;2022-09-03T23:27:04;100330.91;;;19.99;61.63
12913;BME280;6524;51.368;11.984;2022-09-03T23:32:06;100321.63;;;19.94;61.66
12913;BME280;6524;51.368;11.984;2022-09-03T23:37:26;100336.16;;;20.12;61.15
12913;BME280;6524;51.368;11.984;2022-09-03T23:42:39;100339.13;;;20.07;61.32
12913;BME280;6524;51.368;11.984;2022-09-03T23:47:50;100335.53;;;20.08;61.68
12913;BME280;6524;51.368;11.984;2022-09-03T23:53:04;100335.53;;;20.08;62.05
